Links Sitemap Venhuizerweer voor mobiel

AMSTERDAM SCHIPHOL:
Amsterdam Airport Schiphol, Netherlands (EHAM) 52-18N 004-46E -2M
Feb 17, 2019 - 07:55 AM EST / 2019.02.17 1255 UTC
Wind: from the S (170 degrees) at 13 MPH (11 KT):0
Visibility: greater than 7 mile(s):0
Temperature: 57 F (14 C)
Dew Point: 41 F (5 C)
Relative Humidity: 54%
Pressure (altimeter): 30.06 in. Hg (1018 hPa)
ob: EHAM 171255Z 17011KT CAVOK 14/05 Q1018 NOSIG
cycle: 13
DEELEN:
Deelen, Netherlands (EHDL) 52-04N 005-53E 52M
Feb 17, 2019 - 07:55 AM EST / 2019.02.17 1255 UTC
Wind: from the SSE (150 degrees) at 8 MPH (7 KT) (direction variable):0
Visibility: greater than 7 mile(s):0
Sky conditions: overcast
Temperature: 59 F (15 C)
Dew Point: 41 F (5 C)
Relative Humidity: 51%
Pressure (altimeter): 30.09 in. Hg (1019 hPa)
ob: EHDL 171255Z AUTO 15007KT 090V210 9999 BKN300 OVC350 15/05 Q1019 BLU
cycle: 13
DE KOOY:
De Kooy, Netherlands (EHKD) 52-55N 004-47E 14M
Feb 17, 2019 - 07:55 AM EST / 2019.02.17 1255 UTC
Wind: from the S (170 degrees) at 12 MPH (10 KT):0
Visibility: greater than 7 mile(s):0
Sky conditions: overcast
Temperature: 55 F (13 C)
Dew Point: 41 F (5 C)
Relative Humidity: 58%
Pressure (altimeter): 30.03 in. Hg (1017 hPa)
ob: EHKD 171255Z AUTO 17010KT 9999 OVC260 13/05 Q1017 BLU 18010KT AVOK
cycle: 13
EELDE:
Groningen Airport Eelde, Netherlands (EHGG) 53-08N 006-35E 4M
Feb 17, 2019 - 07:55 AM EST / 2019.02.17 1255 UTC
Wind: from the S (180 degrees) at 10 MPH (9 KT) (direction variable):0
Visibility: greater than 7 mile(s):0
Temperature: 55 F (13 C)
Dew Point: 37 F (3 C)
Relative Humidity: 50%
Pressure (altimeter): 30.09 in. Hg (1019 hPa)
ob: EHGG 171255Z AUTO 18009KT 150V210 9999 NSC 13/03 Q1019 NOSIG
cycle: 13
EINDHOVEN:
Eindhoven, Netherlands (EHEH) 51-27N 005-25E 28M
Feb 17, 2019 - 07:55 AM EST / 2019.02.17 1255 UTC
Wind: from the S (180 degrees) at 9 MPH (8 KT) (direction variable):0
Visibility: greater than 7 mile(s):0
Sky conditions: overcast
Temperature: 60 F (16 C)
Dew Point: 33 F (1 C)
Relative Humidity: 36%
Pressure (altimeter): 30.09 in. Hg (1019 hPa)
ob: EHEH 171255Z AUTO 18008KT 160V230 9999 OVC330 16/01 Q1019 BLU 17008KT CAVOK
cycle: 13
GILZE-RIJEN:
Gilze-Rijen, Netherlands (EHGR) 51-34N 004-56E 24M
Feb 17, 2019 - 07:55 AM EST / 2019.02.17 1255 UTC
Wind: from the S (190 degrees) at 9 MPH (8 KT) (direction variable):0
Visibility: greater than 7 mile(s):0
Sky conditions: overcast
Temperature: 59 F (15 C)
Dew Point: 37 F (3 C)
Relative Humidity: 44%
Pressure (altimeter): 30.09 in. Hg (1019 hPa)
ob: EHGR 171255Z AUTO 19008KT 120V230 9999 OVC290 15/03 Q1019 BLU
cycle: 13
LEEUWARDEN:
Leeuwarden, Netherlands (EHLW) 53-13N 005-46E 11M
Feb 17, 2019 - 07:55 AM EST / 2019.02.17 1255 UTC
Wind: from the S (170 degrees) at 12 MPH (10 KT) (direction variable):0
Visibility: greater than 7 mile(s):0
Sky conditions: overcast
Temperature: 53 F (12 C)
Dew Point: 41 F (5 C)
Relative Humidity: 62%
Pressure (altimeter): 30.06 in. Hg (1018 hPa)
ob: EHLW 171255Z AUTO 17010KT 140V200 9999 OVC280 12/05 Q1018 BLU
cycle: 13
MAASTRICHT:
Maastricht Airport Zuid Limburg, Netherlands (EHBK) 50-55N 005-47E 116M
Feb 17, 2019 - 07:55 AM EST / 2019.02.17 1255 UTC
Wind: from the SSW (200 degrees) at 15 MPH (13 KT) (direction variable):0
Visibility: greater than 7 mile(s):0
Temperature: 62 F (17 C)
Dew Point: 32 F (0 C)
Relative Humidity: 31%
Pressure (altimeter): 30.09 in. Hg (1019 hPa)
ob: EHBK 171255Z AUTO 20013KT 170V230 9999 NSC 17/M00 Q1019 NOSIG
cycle: 13
ROTTERDAM ZESTIENHOVEN:
Rotterdam Airport Zestienhoven, Netherlands (EHRD) 51-57N 004-27E -4M
Feb 17, 2019 - 07:55 AM EST / 2019.02.17 1255 UTC
Wind: from the S (170 degrees) at 10 MPH (9 KT) (direction variable):0
Visibility: greater than 7 mile(s):0
Temperature: 57 F (14 C)
Dew Point: 41 F (5 C)
Relative Humidity: 54%
Pressure (altimeter): 30.06 in. Hg (1018 hPa)
ob: EHRD 171255Z AUTO 17009KT 140V200 9999 NSC 14/05 Q1018 NOSIG
cycle: 13
SOESTERBERG:
Soesterberg, Netherlands (EHSB) 52-08N 005-17E 25M
Nov 20, 2008 - 04:25 AM EST / 2008.11.20 0925 UTC
Wind: from the W (280 degrees) at 16 MPH (14 KT):0
Visibility: greater than 7 mile(s):0
Temperature: 51 F (11 C)
Dew Point: 48 F (9 C)
Relative Humidity: 87%
Pressure (altimeter): 29.83 in. Hg (1010 hPa)
ob: EHSB 200925Z AUTO 28014KT 9999 // 11/09 Q1010
cycle: 9
TWENTE:
Twenthe, Netherlands (EHTW) 52-16N 006-54E 57M
Apr 07, 2008 - 08:25 AM EDT / 2008.04.07 1225 UTC
Wind: from the N (010 degrees) at 7 MPH (6 KT):0
Sky conditions: mostly cloudy
Temperature: 46 F (8 C)
Dew Point: 24 F (-4 C)
Relative Humidity: 42%
Pressure (altimeter): 29.59 in. Hg (1002 hPa)
ob: EHTW 071225Z AUTO 01006KT //// // BKN200/// 08/M04 Q1002 RE//
cycle: 12
VALKENBURG:
Valkenburg, Netherlands (EHVB) 52-11N 004-25E 2M
Apr 01, 2010 - 03:55 AM EDT / 2010.04.01 0755 UTC
Wind: from the WSW (250 degrees) at 20 MPH (17 KT):0
Sky conditions: mostly cloudy
Temperature: 41 F (5 C)
Dew Point: 33 F (1 C)
Relative Humidity: 75%
Pressure (altimeter): 29.62 in. Hg (1003 hPa)
ob: EHVB 010755Z AUTO 25017KT 9999NDV FEW021/// BKN037/// 05/01 Q1003 BLU
cycle: 8
VLIELAND:
Vlieland, Netherlands (EHVL) 53-15N 004-55E 12M
Feb 17, 2019 - 07:55 AM EST / 2019.02.17 1255 UTC
Wind: from the SSE (150 degrees) at 16 MPH (14 KT):0
Visibility: greater than 7 mile(s):0
Sky conditions: overcast
Temperature: 48 F (9 C)
Dew Point: 41 F (5 C)
Relative Humidity: 75%
Pressure (altimeter): 30.03 in. Hg (1017 hPa)
ob: EHVL 171255Z AUTO 15014KT 9999 OVC290 09/05 Q1017 BLU
cycle: 13
VOLKEL:
Volkel, Netherlands (EHVK) 51-39N 005-42E 21M
Feb 17, 2019 - 07:55 AM EST / 2019.02.17 1255 UTC
Wind: from the SSE (160 degrees) at 8 MPH (7 KT) (direction variable):0
Visibility: greater than 7 mile(s):0
Sky conditions: overcast
Temperature: 59 F (15 C)
Dew Point: 37 F (3 C)
Relative Humidity: 44%
Pressure (altimeter): 30.09 in. Hg (1019 hPa)
ob: EHVK 171255Z AUTO 16007KT 130V210 9999 OVC280 15/03 Q1019 BLU
cycle: 13
WOENSDRECHT:
Woensdrecht, Netherlands (EHWO) 51-27N 004-20E 17M
Feb 17, 2019 - 07:55 AM EST / 2019.02.17 1255 UTC
Wind: from the S (180 degrees) at 8 MPH (7 KT) (direction variable):0
Visibility: greater than 7 mile(s):0
Sky conditions: overcast
Temperature: 60 F (16 C)
Dew Point: 33 F (1 C)
Relative Humidity: 36%
Pressure (altimeter): 30.06 in. Hg (1018 hPa)
ob: EHWO 171255Z AUTO 18007KT 100V230 9999 OVC280 16/01 Q1018 BLU
cycle: 13
Copyright © 2005 - 2019 Venhuizerweer - Alle Rechten Voorbehouden


3.80.38.5